createdAt,value
2022-09-01T00:00:15.236Z,100.00
2022-09-01T00:02:43.498Z,100.00
2022-09-01T00:05:12.957Z,100.00
2022-09-01T00:07:40.668Z,100.00
2022-09-01T00:10:09.553Z,100.00
2022-09-01T00:12:37.802Z,100.00
2022-09-01T00:15:08.953Z,100.00
2022-09-01T00:17:36.879Z,100.00
2022-09-01T00:20:06.172Z,100.00
2022-09-01T00:22:33.964Z,100.00
2022-09-01T00:25:02.157Z,100.00
2022-09-01T00:27:30.915Z,100.00
2022-09-01T00:30:00.092Z,100.00
2022-09-01T00:32:28.810Z,100.00
2022-09-01T00:34:56.619Z,100.00
2022-09-01T00:37:24.382Z,100.00
2022-09-01T00:39:52.026Z,100.00
2022-09-01T00:42:20.062Z,100.00
2022-09-01T00:44:47.637Z,100.00
2022-09-01T00:47:17.271Z,100.00
2022-09-01T00:49:50.439Z,100.00
2022-09-01T00:52:35.973Z,100.00
2022-09-01T00:55:12.631Z,100.00
2022-09-01T00:57:41.847Z,100.00
2022-09-01T01:00:23.460Z,100.00
2022-09-01T01:02:56.673Z,100.00
2022-09-01T01:05:34.194Z,100.00
2022-09-01T01:08:04.296Z,100.00
2022-09-01T01:10:37.781Z,100.00
2022-09-01T01:13:13.996Z,100.00
2022-09-01T01:15:44.019Z,100.00
2022-09-01T01:18:22.966Z,100.00
2022-09-01T01:21:23.220Z,100.00
2022-09-01T01:24:42.460Z,100.00
2022-09-01T01:27:10.366Z,100.00
2022-09-01T01:29:39.885Z,100.00
2022-09-01T01:32:13.389Z,100.00
2022-09-01T01:34:43.700Z,100.00
2022-09-01T01:37:14.300Z,100.00
2022-09-01T01:39:44.434Z,100.00
2022-09-01T01:42:12.563Z,100.00
2022-09-01T01:44:40.833Z,100.00
2022-09-01T01:47:13.495Z,100.00
2022-09-01T01:49:43.775Z,100.00
2022-09-01T01:52:17.418Z,100.00
2022-09-01T01:54:46.694Z,100.00
2022-09-01T01:57:18.042Z,100.00
2022-09-01T01:59:48.514Z,100.00
2022-09-01T02:02:18.880Z,100.00
2022-09-01T02:04:46.408Z,100.00
2022-09-01T02:07:14.970Z,100.00
2022-09-01T02:09:46.427Z,100.00
2022-09-01T02:12:21.265Z,100.00
2022-09-01T02:14:50.204Z,100.00
2022-09-01T02:17:18.051Z,100.00
2022-09-01T02:19:47.405Z,100.00
2022-09-01T02:22:14.914Z,100.00
2022-09-01T02:24:48.162Z,100.00
2022-09-01T02:27:25.932Z,100.00
2022-09-01T02:29:55.435Z,100.00
2022-09-01T02:32:23.502Z,100.00
2022-09-01T02:34:53.801Z,100.00
2022-09-01T02:37:25.534Z,100.00
2022-09-01T02:39:56.896Z,100.00
2022-09-01T02:42:29.305Z,100.00
2022-09-01T02:44:58.791Z,100.00
2022-09-01T02:47:28.148Z,100.00
2022-09-01T02:50:03.650Z,100.00
2022-09-01T02:52:37.613Z,100.00
2022-09-01T02:55:05.789Z,100.00
2022-09-01T02:57:34.589Z,100.00
2022-09-01T03:00:20.844Z,100.00
2022-09-01T03:02:53.377Z,100.00
2022-09-01T03:05:27.143Z,100.00
2022-09-01T03:08:02.740Z,100.00
2022-09-01T03:10:39.626Z,100.00
2022-09-01T03:13:20.726Z,100.00
2022-09-01T03:15:50.289Z,100.00
2022-09-01T03:18:20.935Z,100.00
2022-09-01T03:20:51.004Z,100.00
2022-09-01T03:23:19.622Z,100.00
2022-09-01T03:25:49.536Z,100.00
2022-09-01T03:28:17.955Z,100.00
2022-09-01T03:30:51.047Z,100.00
2022-09-01T03:33:22.035Z,100.00
2022-09-01T03:35:50.602Z,100.00
2022-09-01T03:38:24.640Z,100.00
2022-09-01T03:41:02.162Z,100.00
2022-09-01T03:43:35.617Z,100.00
2022-09-01T03:46:04.443Z,100.00
2022-09-01T03:48:33.454Z,100.00
2022-09-01T03:51:03.199Z,100.00
2022-09-01T03:53:37.748Z,100.00
2022-09-01T03:56:09.009Z,100.00
2022-09-01T03:58:36.785Z,100.00
2022-09-01T04:01:05.008Z,100.00
2022-09-01T04:03:36.181Z,100.00
2022-09-01T04:06:09.669Z,100.00
2022-09-01T04:08:37.846Z,100.00
2022-09-01T04:11:16.504Z,100.00
2022-09-01T04:13:47.700Z,100.00
2022-09-01T04:16:53.673Z,100.00
2022-09-01T04:19:26.468Z,100.00
2022-09-01T04:22:01.082Z,100.00
2022-09-01T04:24:34.963Z,100.00
2022-09-01T04:27:04.529Z,100.00
2022-09-01T04:29:33.434Z,100.00
2022-09-01T04:32:12.702Z,100.00
2022-09-01T04:34:43.114Z,100.00
2022-09-01T04:37:21.334Z,100.00
2022-09-01T04:39:57.679Z,100.00
2022-09-01T04:42:29.960Z,100.00
2022-09-01T04:45:09.988Z,100.00
2022-09-01T04:47:42.578Z,100.00
2022-09-01T04:50:14.902Z,100.00
2022-09-01T04:53:06.181Z,100.00
2022-09-01T04:55:44.429Z,100.00
2022-09-01T04:58:19.545Z,100.00
2022-09-01T05:00:52.137Z,100.00
2022-09-01T05:03:23.567Z,100.00
2022-09-01T05:06:00.264Z,100.00
2022-09-01T05:08:29.027Z,100.00
2022-09-01T05:11:07.646Z,100.00
2022-09-01T05:13:46.373Z,100.00
2022-09-01T05:16:22.755Z,100.00
2022-09-01T05:18:57.102Z,100.00
2022-09-01T05:21:29.872Z,100.00
2022-09-01T05:24:01.724Z,100.00
2022-09-01T05:26:50.931Z,100.00
2022-09-01T05:29:19.125Z,100.00
2022-09-01T05:31:50.408Z,100.00
2022-09-01T05:34:26.781Z,100.00
2022-09-01T05:36:59.282Z,100.00
2022-09-01T05:39:28.686Z,100.00
2022-09-01T05:41:57.321Z,100.00
2022-09-01T05:44:26.038Z,100.00
2022-09-01T05:46:57.010Z,100.00
2022-09-01T05:49:26.200Z,100.00
2022-09-01T05:51:55.942Z,100.00
2022-09-01T05:54:27.551Z,98.55
2022-09-01T05:57:12.855Z,99.00
2022-09-01T05:59:53.934Z,96.02
2022-09-01T06:02:26.944Z,94.35
2022-09-01T06:04:57.019Z,94.02
2022-09-01T06:07:28.863Z,95.29
2022-09-01T06:09:59.886Z,95.22
2022-09-01T06:12:29.077Z,92.30
2022-09-01T06:14:58.359Z,93.51
2022-09-01T06:17:28.996Z,91.86
2022-09-01T06:20:00.941Z,92.03
2022-09-01T06:22:29.754Z,90.61
2022-09-01T06:25:02.756Z,90.53
2022-09-01T06:27:42.629Z,90.42
2022-09-01T06:30:23.511Z,90.04
2022-09-01T06:33:10.983Z,87.96
2022-09-01T06:35:43.923Z,86.59
2022-09-01T06:38:13.837Z,85.04
2022-09-01T06:40:45.479Z,84.37
2022-09-01T06:43:17.262Z,82.92
2022-09-01T06:45:54.361Z,82.58
2022-09-01T06:48:24.180Z,82.58
2022-09-01T06:51:17.291Z,82.89
2022-09-01T06:53:51.390Z,82.99
2022-09-01T06:56:19.418Z,84.03
2022-09-01T06:58:48.830Z,83.26
2022-09-01T07:01:19.771Z,75.68
2022-09-01T07:03:53.056Z,76.38
2022-09-01T07:09:20.084Z,76.82
2022-09-01T07:12:25.691Z,72.86
2022-09-01T07:18:03.953Z,75.96
2022-09-01T07:21:38.880Z,76.81
2022-09-01T07:24:05.864Z,75.17
2022-09-01T07:26:35.381Z,73.41
2022-09-01T07:29:07.073Z,72.98
2022-09-01T07:34:46.251Z,66.66
2022-09-01T07:38:03.369Z,68.86
2022-09-01T07:43:32.607Z,65.10
2022-09-01T07:46:37.050Z,65.61
2022-09-01T07:51:55.266Z,66.04
2022-09-01T07:54:24.831Z,63.26
2022-09-01T07:56:54.794Z,62.44
2022-09-01T07:59:23.449Z,62.89
2022-09-01T08:01:57.393Z,62.01
2022-09-01T08:04:25.899Z,60.75
2022-09-01T08:06:53.644Z,60.34
2022-09-01T08:09:37.162Z,56.19
2022-09-01T08:12:08.414Z,54.33
2022-09-01T08:14:43.826Z,55.85
2022-09-01T08:17:17.495Z,54.72
2022-09-01T08:20:09.555Z,52.67
2022-09-01T08:22:52.335Z,52.55
2022-09-01T08:25:26.546Z,52.81
2022-09-01T08:28:02.708Z,54.12
2022-09-01T08:30:32.717Z,54.10
2022-09-01T08:33:11.417Z,55.26
2022-09-01T08:35:46.797Z,51.95
2022-09-01T08:38:16.047Z,53.31
2022-09-01T08:40:57.118Z,53.64
2022-09-01T08:44:10.413Z,51.75
2022-09-01T08:46:43.580Z,52.84
2022-09-01T08:49:28.276Z,51.22
2022-09-01T08:52:39.273Z,54.36
2022-09-01T08:55:32.410Z,52.83
2022-09-01T08:58:02.227Z,53.47
2022-09-01T09:01:01.181Z,49.46
2022-09-01T09:04:02.947Z,50.25
2022-09-01T09:07:05.708Z,51.96
2022-09-01T09:09:54.163Z,51.39
2022-09-01T09:12:49.357Z,48.78
2022-09-01T09:16:08.478Z,48.70
2022-09-01T09:18:56.890Z,47.75
2022-09-01T09:21:42.363Z,46.40
2022-09-01T09:24:29.210Z,46.59
2022-09-01T09:27:09.703Z,46.50
2022-09-01T09:29:38.981Z,45.39
2022-09-01T09:34:59.513Z,46.14
2022-09-01T09:37:31.805Z,44.66
2022-09-01T09:40:15.377Z,42.66
2022-09-01T09:43:06.521Z,45.01
2022-09-01T09:45:42.192Z,43.50
2022-09-01T09:48:34.269Z,44.31
2022-09-01T09:51:23.345Z,42.92
2022-09-01T09:53:50.988Z,41.99
2022-09-01T09:56:24.347Z,43.31
2022-09-01T09:58:54.272Z,42.59
2022-09-01T10:01:26.091Z,40.65
2022-09-01T10:04:00.313Z,40.90
2022-09-01T10:06:37.896Z,39.64
2022-09-01T10:09:17.670Z,40.44
2022-09-01T10:11:57.453Z,41.14
2022-09-01T10:15:04.661Z,41.31
2022-09-01T10:17:44.159Z,40.80
2022-09-01T10:20:14.636Z,40.73
2022-09-01T10:22:42.517Z,39.78
2022-09-01T10:25:21.249Z,39.26
2022-09-01T10:27:58.427Z,39.52
2022-09-01T10:30:27.685Z,37.22
2022-09-01T10:33:06.846Z,38.32
2022-09-01T10:35:45.566Z,39.03
2022-09-01T10:38:20.786Z,39.25
2022-09-01T10:41:14.135Z,39.03
2022-09-01T10:43:49.006Z,39.40
2022-09-01T10:46:26.612Z,36.95
2022-09-01T10:49:02.898Z,37.50
2022-09-01T10:51:36.173Z,36.36
2022-09-01T10:54:06.851Z,36.72
2022-09-01T10:56:54.025Z,37.26
2022-09-01T10:59:33.727Z,36.91
2022-09-01T11:02:26.710Z,37.88
2022-09-01T11:04:55.897Z,37.37
2022-09-01T11:07:44.468Z,38.25
2022-09-01T11:10:36.446Z,37.95
2022-09-01T11:13:37.130Z,36.69
2022-09-01T11:16:46.993Z,36.69
2022-09-01T11:19:18.191Z,36.40
2022-09-01T11:21:46.098Z,35.41
2022-09-01T11:24:50.831Z,36.17
2022-09-01T11:27:50.514Z,34.89
2022-09-01T11:30:50.723Z,34.88
2022-09-01T11:33:36.870Z,33.63
2022-09-01T11:36:31.901Z,34.53
2022-09-01T11:39:05.723Z,34.02
2022-09-01T11:42:07.183Z,33.97
2022-09-01T11:44:59.061Z,32.92
2022-09-01T11:47:33.169Z,32.20
2022-09-01T11:50:07.665Z,32.98
2022-09-01T11:52:38.385Z,31.03
2022-09-01T11:55:08.637Z,33.71
2022-09-01T11:57:41.665Z,33.16
2022-09-01T12:00:18.135Z,33.26
2022-09-01T12:02:54.454Z,32.56
2022-09-01T12:05:36.824Z,33.12
2022-09-01T12:08:18.467Z,32.11
2022-09-01T12:10:56.127Z,32.75
2022-09-01T12:13:25.485Z,31.96
2022-09-01T12:16:17.028Z,32.27
2022-09-01T12:18:52.028Z,31.56
2022-09-01T12:21:38.304Z,32.29
2022-09-01T12:24:11.660Z,32.39
2022-09-01T12:26:40.228Z,32.05
2022-09-01T12:29:08.117Z,31.60
2022-09-01T12:31:36.487Z,30.76
2022-09-01T12:34:04.811Z,30.24
2022-09-01T12:36:38.764Z,29.05
2022-09-01T12:39:18.423Z,30.42
2022-09-01T12:42:06.984Z,30.14
2022-09-01T12:44:46.914Z,29.41
2022-09-01T12:47:34.406Z,30.15
2022-09-01T12:50:13.744Z,31.31
2022-09-01T12:52:54.153Z,31.09
2022-09-01T12:55:52.054Z,29.90
2022-09-01T12:58:26.256Z,29.83
2022-09-01T13:01:17.225Z,29.17
2022-09-01T13:04:15.538Z,29.89
2022-09-01T13:06:43.284Z,30.21
2022-09-01T13:09:10.875Z,30.57
2022-09-01T13:14:49.760Z,29.71
2022-09-01T13:17:17.762Z,27.89
2022-09-01T13:19:45.239Z,27.26
2022-09-01T13:22:12.747Z,28.31
2022-09-01T13:24:40.285Z,28.50
2022-09-01T13:27:23.580Z,27.58
2022-09-01T13:29:52.041Z,27.36
2022-09-01T13:32:22.062Z,27.54
2022-09-01T13:34:52.721Z,26.59
2022-09-01T13:37:22.480Z,28.10
2022-09-01T13:39:50.597Z,27.71
2022-09-01T13:42:18.692Z,27.66
2022-09-01T13:44:49.607Z,27.75
2022-09-01T13:47:34.005Z,27.22
2022-09-01T13:50:11.450Z,26.55
2022-09-01T13:52:43.471Z,26.26
2022-09-01T13:55:17.122Z,26.86
2022-09-01T13:57:44.792Z,26.75
2022-09-01T14:00:18.074Z,26.74
2022-09-01T14:02:50.178Z,25.66
2022-09-01T14:05:27.488Z,25.74
2022-09-01T14:07:56.233Z,25.99
2022-09-01T14:10:27.285Z,26.27
2022-09-01T14:12:55.602Z,26.13
2022-09-01T14:15:27.330Z,28.26
2022-09-01T14:17:58.067Z,27.80
2022-09-01T14:20:36.877Z,27.07
2022-09-01T14:23:06.690Z,27.62
2022-09-01T14:25:34.844Z,26.98
2022-09-01T14:28:03.212Z,25.99
2022-09-01T14:30:33.123Z,26.04
2022-09-01T14:33:02.230Z,26.97
2022-09-01T14:35:33.724Z,27.57
2022-09-01T14:38:05.338Z,27.29
2022-09-01T14:40:32.855Z,27.25
2022-09-01T14:43:00.836Z,27.86
2022-09-01T14:45:31.323Z,27.91
2022-09-01T14:48:01.101Z,26.55
2022-09-01T14:50:35.045Z,26.94
2022-09-01T14:53:05.329Z,28.27
2022-09-01T14:55:33.068Z,29.29
2022-09-01T14:58:00.894Z,30.11
2022-09-01T15:00:30.238Z,30.89
2022-09-01T15:02:58.720Z,31.54
2022-09-01T15:05:26.427Z,31.74
2022-09-01T15:07:54.603Z,33.27
2022-09-01T15:10:26.006Z,33.70
2022-09-01T15:12:59.706Z,34.59
2022-09-01T15:15:29.651Z,34.53
2022-09-01T15:17:59.150Z,35.22
2022-09-01T15:20:45.363Z,35.58
2022-09-01T15:23:22.875Z,34.92
2022-09-01T15:25:54.271Z,36.09
2022-09-01T15:28:22.798Z,36.01
2022-09-01T15:30:51.723Z,36.33
2022-09-01T15:33:22.526Z,35.51
2022-09-01T15:35:50.083Z,36.36
2022-09-01T15:38:18.355Z,35.70
2022-09-01T15:40:57.144Z,36.99
2022-09-01T15:43:27.839Z,36.29
2022-09-01T15:45:58.346Z,36.81
2022-09-01T15:48:30.340Z,36.50
2022-09-01T15:51:30.587Z,36.91
2022-09-01T15:54:08.899Z,37.82
2022-09-01T15:56:37.094Z,36.26
2022-09-01T15:59:07.528Z,36.94
2022-09-01T16:01:41.896Z,36.13
2022-09-01T16:04:19.087Z,35.20
2022-09-01T16:06:49.628Z,35.39
2022-09-01T16:09:20.894Z,36.01
2022-09-01T16:11:48.729Z,38.14
2022-09-01T16:14:16.497Z,38.42
2022-09-01T16:17:13.843Z,39.21
2022-09-01T16:20:14.458Z,39.76
2022-09-01T16:22:54.759Z,40.57
2022-09-01T16:25:32.427Z,41.20
2022-09-01T16:28:23.298Z,40.81
2022-09-01T16:30:54.477Z,41.18
2022-09-01T16:33:22.163Z,42.60
2022-09-01T16:36:08.314Z,43.28
2022-09-01T16:38:39.423Z,42.23
2022-09-01T16:41:44.053Z,43.37
2022-09-01T16:44:45.206Z,43.72
2022-09-01T16:47:35.119Z,44.54
2022-09-01T16:50:29.891Z,45.08
2022-09-01T16:53:18.237Z,45.70
2022-09-01T16:56:13.122Z,46.35
2022-09-01T16:58:52.292Z,46.79
2022-09-01T17:02:23.019Z,47.42
2022-09-01T17:05:19.158Z,47.28
2022-09-01T17:08:26.146Z,48.83
2022-09-01T17:11:10.458Z,49.78
2022-09-01T17:13:43.918Z,50.20
2022-09-01T17:16:42.699Z,50.88
2022-09-01T17:19:18.841Z,51.07
2022-09-01T17:21:54.018Z,50.68
2022-09-01T17:24:43.844Z,51.27
2022-09-01T17:27:40.116Z,50.45
2022-09-01T17:30:08.569Z,50.53
2022-09-01T17:33:18.679Z,51.45
2022-09-01T17:35:46.568Z,51.77
2022-09-01T17:38:32.740Z,51.75
2022-09-01T17:41:23.663Z,51.96
2022-09-01T17:44:14.592Z,52.53
2022-09-01T17:46:58.265Z,53.88
2022-09-01T17:49:50.958Z,53.10
2022-09-01T17:52:55.231Z,53.00
2022-09-01T17:55:43.106Z,54.36
2022-09-01T17:58:23.086Z,54.02
2022-09-01T18:01:15.687Z,53.17
2022-09-01T18:04:36.182Z,51.92
2022-09-01T18:07:20.710Z,53.78
2022-09-01T18:09:55.285Z,52.47
2022-09-01T18:12:31.503Z,52.35
2022-09-01T18:15:20.293Z,52.33
2022-09-01T18:18:15.389Z,52.14
2022-09-01T18:20:46.870Z,53.43
2022-09-01T18:23:39.185Z,53.60
2022-09-01T18:26:22.992Z,54.15
2022-09-01T18:28:55.827Z,54.58
2022-09-01T18:31:35.363Z,53.54
2022-09-01T18:34:29.841Z,53.46
2022-09-01T18:37:37.550Z,53.39
2022-09-01T18:40:15.879Z,52.95
2022-09-01T18:43:17.337Z,52.95
2022-09-01T18:45:56.986Z,53.53
2022-09-01T18:48:52.757Z,54.10
2022-09-01T18:51:33.238Z,55.20
2022-09-01T18:54:31.796Z,55.33
2022-09-01T18:57:19.076Z,55.51
2022-09-01T19:00:18.628Z,56.32
2022-09-01T19:03:28.507Z,56.95
2022-09-01T19:06:27.045Z,57.26
2022-09-01T19:09:01.476Z,57.17
2022-09-01T19:12:16.670Z,57.80
2022-09-01T19:15:13.867Z,58.86
2022-09-01T19:18:23.109Z,60.01
2022-09-01T19:21:32.632Z,59.34
2022-09-01T19:24:15.921Z,59.67
2022-09-01T19:27:04.835Z,59.95
2022-09-01T19:30:02.384Z,60.73
2022-09-01T19:32:40.521Z,61.33
2022-09-01T19:35:18.062Z,63.09
2022-09-01T19:37:51.519Z,63.98
2022-09-01T19:40:33.488Z,65.08
2022-09-01T19:43:10.186Z,65.67
2022-09-01T19:46:06.254Z,66.42
2022-09-01T19:48:58.318Z,67.11
2022-09-01T19:51:42.092Z,67.78
2022-09-01T19:54:27.810Z,68.38
2022-09-01T19:57:21.194Z,68.22
2022-09-01T20:00:10.638Z,69.81
2022-09-01T20:02:53.767Z,70.51
2022-09-01T20:05:58.920Z,71.83
2022-09-01T20:09:04.195Z,72.10
2022-09-01T20:11:52.249Z,72.81
2022-09-01T20:14:52.770Z,73.84
2022-09-01T20:17:58.085Z,74.55
2022-09-01T20:21:07.925Z,75.66
2022-09-01T20:24:06.345Z,75.13
2022-09-01T20:26:48.495Z,76.12
2022-09-01T20:29:33.025Z,76.44
2022-09-01T20:32:07.268Z,77.48
2022-09-01T20:34:54.998Z,77.35
2022-09-01T20:37:34.157Z,78.16
2022-09-01T20:40:25.056Z,78.00
2022-09-01T20:43:19.352Z,78.08
2022-09-01T20:45:47.374Z,78.81
2022-09-01T20:48:27.789Z,77.85
2022-09-01T20:51:41.442Z,78.73
2022-09-01T20:54:30.116Z,79.75
2022-09-01T20:57:00.410Z,80.21
2022-09-01T20:59:56.809Z,81.00
2022-09-01T21:02:46.072Z,80.83
2022-09-01T21:05:46.304Z,81.77
2022-09-01T21:08:39.051Z,81.00
2022-09-01T21:11:55.341Z,81.14
2022-09-01T21:14:51.059Z,83.02
2022-09-01T21:17:58.700Z,83.40
2022-09-01T21:21:21.072Z,86.42
2022-09-01T21:23:48.692Z,86.68
2022-09-01T21:26:16.252Z,86.98
2022-09-01T21:28:48.031Z,88.17
2022-09-01T21:31:15.906Z,87.95
2022-09-01T21:33:44.705Z,89.51
2022-09-01T21:36:12.425Z,89.50
2022-09-01T21:38:40.179Z,90.40
2022-09-01T21:41:12.975Z,90.21
2022-09-01T21:43:44.715Z,89.49
2022-09-01T21:46:14.681Z,91.14
2022-09-01T21:48:42.687Z,92.26
2022-09-01T21:51:10.328Z,94.14
2022-09-01T21:53:37.900Z,95.19
2022-09-01T21:56:06.096Z,96.19
2022-09-01T21:58:36.341Z,96.92
2022-09-01T22:01:05.488Z,98.62
2022-09-01T22:03:33.531Z,98.35
2022-09-01T22:06:01.143Z,99.72
2022-09-01T22:08:28.700Z,99.98
2022-09-01T22:10:56.447Z,100.00
2022-09-01T22:13:25.526Z,100.00
2022-09-01T22:15:54.629Z,100.00
2022-09-01T22:18:23.068Z,100.00
2022-09-01T22:20:50.728Z,100.00
2022-09-01T22:23:20.446Z,100.00
2022-09-01T22:25:48.576Z,100.00
2022-09-01T22:28:16.063Z,100.00
2022-09-01T22:30:51.390Z,100.00
2022-09-01T22:33:21.392Z,100.00
2022-09-01T22:35:53.583Z,100.00
2022-09-01T22:38:22.564Z,100.00
2022-09-01T22:40:55.129Z,100.00
2022-09-01T22:43:28.185Z,100.00
2022-09-01T22:45:58.375Z,100.00
2022-09-01T22:48:27.815Z,100.00
2022-09-01T22:50:55.481Z,100.00
2022-09-01T22:53:24.043Z,100.00
2022-09-01T22:55:52.838Z,100.00
2022-09-01T22:58:21.245Z,100.00
2022-09-01T23:00:54.261Z,100.00
2022-09-01T23:03:23.805Z,100.00
2022-09-01T23:06:07.629Z,100.00
2022-09-01T23:08:36.063Z,100.00
2022-09-01T23:11:03.830Z,100.00
2022-09-01T23:13:31.649Z,100.00
2022-09-01T23:16:04.621Z,100.00
2022-09-01T23:18:35.568Z,100.00
2022-09-01T23:21:05.302Z,100.00
2022-09-01T23:23:33.784Z,100.00
2022-09-01T23:26:04.082Z,100.00
2022-09-01T23:28:32.642Z,100.00
2022-09-01T23:31:00.560Z,100.00
2022-09-01T23:33:30.263Z,100.00
2022-09-01T23:35:57.930Z,100.00
2022-09-01T23:38:26.691Z,100.00
2022-09-01T23:40:57.024Z,100.00
2022-09-01T23:43:26.259Z,100.00
2022-09-01T23:45:57.299Z,100.00
2022-09-01T23:48:25.685Z,100.00
2022-09-01T23:50:57.923Z,100.00
2022-09-01T23:53:33.645Z,100.00
2022-09-01T23:56:04.570Z,100.00
2022-09-01T23:58:32.909Z,100.00
